Airfield :
LOGIN :

Register | Disclaimer

   EN    FR    IT 

 










Legend :    VFR   Marginal VFR   IFR   Intensive IFR   Very Intensive IFR
Visi :
Ceiling :
>= 8 km
>= 3000ft
5 to 8 km
1000 to 3000 ft
1500m to 5 km
500 to 1000 ft
800 to 1500m
200 to 500 ft
< 800m
< 200 ft
Symbols :   Thunderstorms  Fog  Heavy snow  Heavy precipitations  Wind > 20 kt
SIGMETs :     Misc.  Thunderstorms  Icing  Turbulence  Mountain Waves  Volcanic Ashes






- Airport Elevation : 794 ft


LKCV - Čáslav Air Base

CURRENT METAR :
  • 252030Z 16005KT 9999 -SHRA FEW022 BKN060 OVC070 12/11 Q1010 NOSIG RMK BLU BLU

EXPIRED METARs :
  • 252000Z 16008KT 9999 -SHRA FEW022 OVC060 12/11 Q1010 NOSIG RMK BLU BLU
  • 251930Z 17009KT 9999 -SHRA NSC 12/11 Q1010 NOSIG RMK BLU BLU
  • 251900Z 14005KT 110V170 9999 -SHRA FEW020TCU BKN070 11/11 Q1010 NOSIG
  • 251830Z 17004KT 110V280 9999 -SHRA FEW020TCU BKN060 12/10 Q1010 NOSIG RMK BLU BLU
  • 251800Z 16006KT 9999 -SHRA FEW020TCU BKN060 11/11 Q1010 RESHRA NOSIG

TAF TAF LKCV
Valid from the 25 at 18:00 until the 26 at 18:00 UTC


251700Z 2518/2618 VRB02KT 9999 BKN027
TEMPO 2518/2603 17010KT 7000 SHRA BKN030TCU
PROB30
TEMPO 2518/2520 5000 TSRA SCT023CB
TEMPO 2603/2608 4000 RA BR BKN008



MET'MAP, your aeronautical weather chart ! - Copyright ORBIFLY December 2007 - Disclaimer

ORBIFLY MET'MAP TEAM :

Programming & Development : Alexandra Zaïnal
Original concept : Baudouin d'Aumeries
Technical & hardware support : Manuel Goepfert
Assistance : Marc-Olivier Méhu




SOURCES & CREDITS :

   NOAA